Time;durP1;ratioP1;P1;durP2;ratioP2;P2;SDS_P1;SDS_P2;PMS_P1;PMS_P2;Temp;Humidity;BMP_temperature;BMP_pressure;BME280_temperature;BME280_humidity;BME280_pressure;Samples;Min_cycle;Max_cycle;Signal;HPM_P1;HPM_P2
2022/11/21 00:01:27;;;;;;;15.73;11.27;;;1.40;99.90;;;;;;5128091;27;20087;-81
2022/11/21 00:03:53;;;;;;;18.77;11.90;;;1.30;99.90;;;;;;5128522;27;20081;-81
2022/11/21 00:06:19;;;;;;;19.08;10.88;;;1.40;99.90;;;;;;5127707;27;20434;-81
2022/11/21 00:08:46;;;;;;;19.70;12.07;;;1.30;99.90;;;;;;5094526;27;20052;-81
2022/11/21 00:11:12;;;;;;;18.10;11.15;;;1.40;99.90;;;;;;5110610;27;20095;-81
2022/11/21 00:13:37;;;;;;;19.08;11.00;;;1.90;99.90;;;;;;5111470;27;20045;-81
2022/11/21 00:16:05;;;;;;;23.65;12.75;;;1.30;99.90;;;;;;5127621;27;20043;-81
2022/11/21 00:18:33;;;;;;;19.42;11.13;;;1.30;99.90;;;;;;5128447;27;20070;-81
2022/11/21 00:21:10;;;;;;;20.17;11.45;;;2.20;99.90;;;;;;5111232;27;20115;-81
2022/11/21 00:23:36;;;;;;;20.70;11.30;;;1.30;99.90;;;;;;5127557;27;20042;-81
2022/11/21 00:26:09;;;;;;;16.88;10.30;;;1.70;99.90;;;;;;5111290;27;20057;-81
2022/11/21 00:28:35;;;;;;;18.77;11.27;;;1.30;99.90;;;;;;5127720;27;20500;-81
2022/11/21 00:31:01;;;;;;;17.05;10.50;;;1.30;99.90;;;;;;5110707;27;20050;-81
2022/11/21 00:33:27;;;;;;;20.80;10.85;;;1.20;99.90;;;;;;5127472;27;20047;-81
2022/11/21 00:35:53;;;;;;;20.67;12.00;;;1.20;99.90;;;;;;5128139;27;20134;-81
2022/11/21 00:38:18;;;;;;;19.30;10.80;;;1.20;99.90;;;;;;5110755;27;20038;-81
2022/11/21 00:40:44;;;;;;;18.63;12.30;;;1.20;99.90;;;;;;5127690;27;20078;-81
2022/11/21 00:43:10;;;;;;;20.92;11.40;;;1.20;99.90;;;;;;5127992;27;20038;-81
2022/11/21 00:45:36;;;;;;;21.63;12.38;;;1.20;99.90;;;;;;5110345;27;20049;-81
2022/11/21 00:48:01;;;;;;;24.20;12.05;;;1.20;99.90;;;;;;5110844;27;20385;-81
2022/11/21 00:50:27;;;;;;;18.67;11.60;;;1.10;99.90;;;;;;5110382;27;20108;-81
2022/11/21 00:52:56;;;;;;;24.55;12.80;;;1.10;99.90;;;;;;5093769;27;20064;-81
2022/11/21 00:55:23;;;;;;;23.67;13.25;;;1.20;99.90;;;;;;5110925;27;20491;-81
2022/11/21 00:57:50;;;;;;;25.85;13.10;;;1.00;99.90;;;;;;5110810;27;20401;-81
2022/11/21 01:00:17;;;;;;;27.48;13.68;;;1.00;99.90;;;;;;5127571;27;20050;-81
2022/11/21 01:02:42;;;;;;;22.27;13.00;;;0.90;99.90;;;;;;5127596;27;20050;-81
2022/11/21 01:05:08;;;;;;;23.88;12.98;;;0.90;99.90;;;;;;5127696;27;20039;-81
2022/11/21 01:07:35;;;;;;;21.80;12.00;;;0.80;99.90;;;;;;5110354;27;20047;-81
2022/11/21 01:10:00;;;;;;;17.02;10.40;;;0.70;99.90;;;;;;5131767;27;20043;-81
2022/11/21 01:12:26;;;;;;;18.10;11.20;;;0.60;99.90;;;;;;5114084;27;20037;-81
2022/11/21 01:14:52;;;;;;;20.60;12.07;;;0.60;99.90;;;;;;5115169;27;20050;-81
2022/11/21 01:17:17;;;;;;;25.35;13.10;;;0.50;99.90;;;;;;5114370;27;20492;-81
2022/11/21 01:19:44;;;;;;;24.70;12.60;;;0.70;99.90;;;;;;5114396;27;20042;-81
2022/11/21 01:22:09;;;;;;;24.25;13.18;;;0.40;99.90;;;;;;5114430;27;20078;-81
2022/11/21 01:24:35;;;;;;;21.80;12.13;;;0.30;99.90;;;;;;5096986;27;20085;-81
2022/11/21 01:27:00;;;;;;;24.08;13.43;;;0.30;99.90;;;;;;5131953;27;20049;-81
2022/11/21 01:29:27;;;;;;;22.27;11.73;;;0.20;99.90;;;;;;5113695;27;20166;-81
2022/11/21 01:31:52;;;;;;;21.33;12.30;;;0.20;99.90;;;;;;5114169;27;20051;-81
2022/11/21 01:34:18;;;;;;;20.92;12.43;;;0.10;99.90;;;;;;5114059;27;20452;-81
2022/11/21 01:36:44;;;;;;;18.17;12.02;;;1.30;99.90;;;;;;5114522;27;20618;-81
2022/11/21 01:39:10;;;;;;;22.75;11.63;;;0.00;99.90;;;;;;5097428;27;20087;-81
2022/11/21 01:41:41;;;;;;;26.65;12.50;;;-0.10;99.90;;;;;;5131502;27;20378;-81
2022/11/21 01:44:16;;;;;;;17.90;11.10;;;-0.10;99.90;;;;;;5114364;27;20517;-81
2022/11/21 01:46:41;;;;;;;21.55;11.65;;;-0.20;99.90;;;;;;5113815;27;20042;-82
2022/11/21 01:49:12;;;;;;;22.85;12.40;;;-0.20;99.90;;;;;;5114043;27;20043;-81
2022/11/21 01:51:43;;;;;;;21.48;11.00;;;0.60;99.90;;;;;;5114187;27;20113;-81
2022/11/21 01:54:33;;;;;;;19.70;11.13;;;-0.30;99.90;;;;;;5114709;27;20341;-81
2022/11/21 01:57:11;;;;;;;23.88;11.88;;;-0.30;99.90;;;;;;5114788;27;20074;-81
2022/11/21 01:59:48;;;;;;;19.00;11.20;;;0.20;99.90;;;;;;5113757;27;20055;-81
2022/11/21 02:02:19;;;;;;;18.85;11.63;;;-0.40;99.90;;;;;;5113868;27;20042;-81
2022/11/21 02:04:47;;;;;;;20.48;11.82;;;-0.50;99.90;;;;;;5130408;27;20045;-81
2022/11/21 02:07:15;;;;;;;18.52;11.23;;;-0.50;99.90;;;;;;5113395;27;20031;-81
2022/11/21 02:09:45;;;;;;;20.27;11.88;;;-0.50;99.90;;;;;;5130700;27;20081;-81
2022/11/21 02:12:28;;;;;;;19.85;12.23;;;-0.50;99.90;;;;;;5113499;27;20504;-81
2022/11/21 02:14:55;;;;;;;21.30;12.85;;;-0.50;99.90;;;;;;5113370;27;20046;-81
2022/11/21 02:17:21;;;;;;;22.08;12.35;;;-0.60;99.90;;;;;;5113949;27;20456;-81
2022/11/21 02:19:54;;;;;;;23.95;12.65;;;-0.60;99.90;;;;;;5112890;27;20074;-82
2022/11/21 02:22:31;;;;;;;20.80;12.30;;;-0.60;99.90;;;;;;5130735;27;20054;-81
2022/11/21 02:25:07;;;;;;;22.58;12.48;;;-0.60;99.90;;;;;;5130151;27;20049;-81
2022/11/21 02:27:33;;;;;;;25.38;14.02;;;0.40;99.90;;;;;;5113443;27;20057;-81
2022/11/21 02:30:01;;;;;;;22.05;12.48;;;-0.60;99.90;;;;;;5095607;27;20133;-81
2022/11/21 02:32:47;;;;;;;24.45;13.45;;;-0.60;99.90;;;;;;5113220;27;20042;-81
2022/11/21 02:35:15;;;;;;;22.85;12.98;;;-0.60;99.90;;;;;;5130568;27;20401;-81
2022/11/21 02:37:41;;;;;;;24.50;14.57;;;-0.60;99.90;;;;;;5112704;27;20046;-81
2022/11/21 02:40:11;;;;;;;24.35;13.50;;;-0.60;99.90;;;;;;5096234;27;20054;-81
2022/11/21 02:42:44;;;;;;;26.48;14.02;;;-0.60;99.90;;;;;;5113430;27;20039;-81
2022/11/21 02:45:25;;;;;;;23.33;14.13;;;-0.50;99.90;;;;;;5130415;27;20043;-81
2022/11/21 02:47:54;;;;;;;25.15;13.18;;;-0.50;99.90;;;;;;5112786;27;20125;-81
2022/11/21 02:50:26;;;;;;;21.67;13.50;;;-0.60;99.90;;;;;;5113231;27;20486;-81
2022/11/21 02:52:52;;;;;;;25.08;15.00;;;0.50;99.90;;;;;;5129928;27;20038;-81
2022/11/21 02:55:18;;;;;;;23.25;13.68;;;0.60;99.90;;;;;;5112342;27;20187;-81
2022/11/21 02:57:44;;;;;;;23.55;13.30;;;-0.50;99.90;;;;;;5095743;27;20129;-81
2022/11/21 03:00:10;;;;;;;23.70;14.27;;;-0.60;99.90;;;;;;5112268;27;20145;-81
2022/11/21 03:02:36;;;;;;;27.20;14.85;;;-0.50;99.90;;;;;;5112604;27;20110;-82
2022/11/21 03:05:05;;;;;;;23.55;13.63;;;-0.50;99.90;;;;;;5129134;27;20074;-81
2022/11/21 03:07:31;;;;;;;29.17;15.20;;;-0.50;99.90;;;;;;5129882;27;20074;-81
2022/11/21 03:09:57;;;;;;;21.60;13.07;;;-0.40;99.90;;;;;;5112480;27;20088;-81
2022/11/21 03:12:22;;;;;;;28.98;15.73;;;-0.40;99.90;;;;;;5095928;27;20045;-81
2022/11/21 03:14:48;;;;;;;26.27;15.65;;;-0.70;99.90;;;;;;5129576;27;20066;-81
2022/11/21 03:17:14;;;;;;;22.63;13.65;;;-0.40;99.90;;;;;;5112336;27;20042;-81
2022/11/21 03:19:39;;;;;;;29.48;15.40;;;-0.40;99.90;;;;;;5112135;27;20455;-81
2022/11/21 03:22:05;;;;;;;24.70;14.38;;;-0.40;99.90;;;;;;5111515;27;20049;-81
2022/11/21 03:24:31;;;;;;;28.27;14.70;;;-0.40;99.90;;;;;;5129451;27;20384;-81
2022/11/21 03:26:57;;;;;;;30.00;15.48;;;-0.40;99.90;;;;;;5111986;27;20038;-81
2022/11/21 03:29:23;;;;;;;26.38;15.45;;;-0.40;99.90;;;;;;5095480;27;20137;-81
2022/11/21 03:31:49;;;;;;;24.83;14.65;;;-0.40;99.90;;;;;;5111219;27;20182;-81
2022/11/21 03:34:15;;;;;;;24.77;14.85;;;-0.30;99.90;;;;;;5112092;27;20043;-81
2022/11/21 03:36:40;;;;;;;24.33;15.23;;;-0.30;99.90;;;;;;5128964;27;20045;-81
2022/11/21 03:39:06;;;;;;;27.77;15.48;;;-0.30;99.90;;;;;;5095174;27;20089;-81
2022/11/21 03:41:32;;;;;;;30.08;17.48;;;-0.30;99.90;;;;;;5128751;27;20052;-81
2022/11/21 03:44:02;;;;;;;28.88;15.52;;;0.40;99.90;;;;;;5111638;27;20065;-81
2022/11/21 03:46:30;;;;;;;30.00;16.80;;;-0.30;99.90;;;;;;5112160;27;20066;-81
2022/11/21 03:48:56;;;;;;;27.38;15.82;;;-0.30;99.90;;;;;;5112031;27;20043;-81
2022/11/21 03:51:22;;;;;;;26.70;15.57;;;-0.30;99.90;;;;;;5094622;27;20442;-81
2022/11/21 03:53:48;;;;;;;26.00;14.95;;;-0.40;99.90;;;;;;5094872;27;20039;-81
2022/11/21 03:56:14;;;;;;;23.75;14.05;;;-0.40;99.90;;;;;;5111483;27;20046;-81
2022/11/21 03:58:40;;;;;;;25.13;14.65;;;-0.40;99.90;;;;;;5111540;27;20184;-81
2022/11/21 04:01:05;;;;;;;29.25;16.63;;;-0.40;99.90;;;;;;5111343;27;20049;-81
2022/11/21 04:03:31;;;;;;;22.52;13.27;;;-0.40;99.90;;;;;;5128864;27;20042;-82
2022/11/21 04:05:57;;;;;;;24.25;14.13;;;-0.40;99.90;;;;;;5128667;27;20039;-81
2022/11/21 04:08:23;;;;;;;30.08;15.57;;;-0.40;99.90;;;;;;5111218;27;20050;-82
2022/11/21 04:10:50;;;;;;;23.10;15.30;;;-0.40;99.90;;;;;;5110919;27;20473;-81
2022/11/21 04:13:17;;;;;;;25.40;14.93;;;-0.40;99.90;;;;;;5127993;27;20034;-82
2022/11/21 04:15:44;;;;;;;27.70;15.43;;;-0.30;99.90;;;;;;5110743;27;20042;-81
2022/11/21 04:18:10;;;;;;;26.83;15.48;;;-0.30;99.90;;;;;;5127559;27;20087;-81
2022/11/21 04:20:36;;;;;;;29.42;16.95;;;-0.20;99.90;;;;;;5111258;27;20039;-81
2022/11/21 04:23:02;;;;;;;27.25;14.60;;;-0.20;99.90;;;;;;5127883;27;20485;-82
2022/11/21 04:25:28;;;;;;;27.48;15.38;;;-0.10;99.90;;;;;;5110538;27;20039;-81
2022/11/21 04:27:57;;;;;;;25.88;15.50;;;-0.10;99.90;;;;;;5076938;27;20045;-81
2022/11/21 04:30:23;;;;;;;26.35;15.70;;;0.00;99.90;;;;;;5110714;27;20042;-82
2022/11/21 04:32:50;;;;;;;29.10;15.57;;;0.00;99.90;;;;;;5111468;27;20080;-81
2022/11/21 04:35:16;;;;;;;24.17;15.32;;;0.10;99.90;;;;;;5093818;27;20045;-81
2022/11/21 04:37:42;;;;;;;26.65;15.35;;;0.10;99.90;;;;;;5094203;27;20039;-82
2022/11/21 04:40:08;;;;;;;26.02;15.30;;;0.20;99.90;;;;;;5128106;27;20058;-81
2022/11/21 04:42:34;;;;;;;24.38;14.93;;;0.20;99.90;;;;;;5130024;27;20042;-81
2022/11/21 04:45:00;;;;;;;25.70;15.32;;;0.20;99.90;;;;;;5081121;27;20054;-82
2022/11/21 04:47:26;;;;;;;25.13;14.48;;;0.20;99.90;;;;;;5114614;27;20336;-82
2022/11/21 04:49:52;;;;;;;26.40;14.23;;;0.30;99.90;;;;;;5080947;27;20077;-82
2022/11/21 04:52:18;;;;;;;24.48;14.70;;;0.30;99.90;;;;;;5114510;27;20074;-82
2022/11/21 04:54:43;;;;;;;24.08;14.73;;;0.30;99.90;;;;;;5132473;27;20169;-82
2022/11/21 04:57:09;;;;;;;23.98;14.65;;;0.30;99.90;;;;;;5114736;27;20042;-82
2022/11/21 04:59:34;;;;;;;22.23;13.68;;;0.30;99.90;;;;;;5098072;27;20049;-82
2022/11/21 05:02:02;;;;;;;24.27;13.85;;;0.30;99.90;;;;;;5131857;27;20043;-82
2022/11/21 05:04:28;;;;;;;25.48;14.48;;;0.30;99.90;;;;;;5114556;27;20047;-81
2022/11/21 05:06:53;;;;;;;23.73;14.65;;;0.40;99.90;;;;;;5131739;27;20520;-82
2022/11/21 05:09:19;;;;;;;25.50;14.20;;;0.20;99.90;;;;;;5114760;27;20053;-81
2022/11/21 05:14:29;;;;;;;24.98;12.88;;;0.10;99.90;;;;;;5116752;27;20046;-82
2022/11/21 05:16:54;;;;;;;22.08;13.05;;;0.00;99.90;;;;;;5097972;27;20087;-82
2022/11/21 05:19:20;;;;;;;20.80;12.38;;;-0.10;99.90;;;;;;5131439;27;20125;-82
2022/11/21 05:21:46;;;;;;;24.20;13.90;;;-0.20;99.90;;;;;;5097008;27;20057;-82
2022/11/21 05:24:11;;;;;;;25.77;14.00;;;-0.20;99.90;;;;;;5097320;27;20039;-82
2022/11/21 05:26:37;;;;;;;22.77;12.70;;;-0.20;99.90;;;;;;5113878;27;20042;-82
2022/11/21 05:29:03;;;;;;;23.40;13.10;;;-0.30;99.90;;;;;;5131345;27;20091;-82
2022/11/21 05:31:29;;;;;;;21.20;12.80;;;-0.30;99.90;;;;;;5109389;27;20058;-82
2022/11/21 05:33:55;;;;;;;23.30;12.55;;;-0.40;99.90;;;;;;5110950;27;20043;-81
2022/11/21 05:36:21;;;;;;;23.40;12.95;;;-0.40;99.90;;;;;;5110334;27;20054;-81
2022/11/21 05:38:46;;;;;;;21.73;12.55;;;-0.40;99.90;;;;;;5110725;27;20414;-79
2022/11/21 05:41:12;;;;;;;21.52;12.20;;;-0.20;99.90;;;;;;5110521;27;20047;-81
2022/11/21 05:43:46;;;;;;;23.85;13.05;;;-0.50;99.90;;;;;;5127078;27;20039;-80
2022/11/21 05:46:18;;;;;;;24.20;14.15;;;-0.50;99.90;;;;;;5096170;27;20039;-80
2022/11/21 05:48:44;;;;;;;22.58;12.57;;;-0.60;99.90;;;;;;5127100;27;20122;-80
2022/11/21 05:51:10;;;;;;;20.65;13.10;;;-0.60;99.90;;;;;;5128264;27;20046;-79
2022/11/21 05:53:36;;;;;;;24.65;13.10;;;-0.70;99.90;;;;;;5126512;27;20031;-81
2022/11/21 05:56:07;;;;;;;22.83;13.10;;;-0.70;99.90;;;;;;5093007;27;20061;-81
2022/11/21 05:58:34;;;;;;;24.83;12.77;;;-0.70;99.90;;;;;;5127360;27;20622;-82
2022/11/21 06:01:00;;;;;;;23.10;13.60;;;-0.70;99.90;;;;;;5110021;27;20051;-81
2022/11/21 06:03:31;;;;;;;19.88;12.35;;;-0.80;99.90;;;;;;5094232;27;20436;-81
2022/11/21 06:06:08;;;;;;;22.25;12.95;;;-0.80;99.90;;;;;;5127489;27;20039;-81
2022/11/21 06:08:36;;;;;;;19.58;12.07;;;-0.80;99.90;;;;;;5127667;27;20043;-81
2022/11/21 06:11:04;;;;;;;19.42;11.35;;;-0.80;99.90;;;;;;5128030;27;20039;-81
2022/11/21 06:13:32;;;;;;;22.58;12.50;;;0.30;99.90;;;;;;5110621;27;20402;-80
2022/11/21 06:16:04;;;;;;;25.23;14.40;;;0.20;99.90;;;;;;5127917;27;20497;-81
2022/11/21 06:18:41;;;;;;;18.67;10.38;;;-0.90;99.90;;;;;;5126298;27;20490;-80
2022/11/21 06:21:13;;;;;;;23.83;13.70;;;-0.90;99.90;;;;;;5093196;27;20486;-80
2022/11/21 06:23:39;;;;;;;28.98;13.27;;;-0.90;99.90;;;;;;5109384;27;20039;-81
2022/11/21 06:26:07;;;;;;;25.33;13.38;;;-0.90;99.90;;;;;;5092777;27;20118;-81
2022/11/21 06:28:35;;;;;;;22.27;14.10;;;-1.00;99.90;;;;;;5109920;27;20394;-81
2022/11/21 06:31:05;;;;;;;33.05;17.85;;;-1.10;99.90;;;;;;5108747;27;20047;-80
2022/11/21 06:33:32;;;;;;;39.88;20.20;;;-1.10;99.90;;;;;;5127055;27;20501;-80
2022/11/21 06:36:01;;;;;;;26.08;16.35;;;-1.60;99.90;;;;;;5108453;27;20074;-82
2022/11/21 06:38:27;;;;;;;25.98;13.30;;;-1.20;99.90;;;;;;5109866;27;20081;-79
2022/11/21 06:40:52;;;;;;;24.00;13.77;;;-1.20;99.90;;;;;;5092186;27;20074;-81
2022/11/21 06:43:18;;;;;;;22.33;13.23;;;-1.20;99.90;;;;;;5109026;27;20039;-81
2022/11/21 06:45:44;;;;;;;26.02;14.35;;;-1.20;99.90;;;;;;5109065;27;20039;-81
2022/11/21 06:48:10;;;;;;;27.02;14.00;;;-1.20;99.90;;;;;;5125882;27;20115;-81
2022/11/21 06:50:37;;;;;;;28.83;15.75;;;-1.30;99.90;;;;;;5110397;27;20083;-81
2022/11/21 06:53:03;;;;;;;28.95;16.00;;;-1.30;99.90;;;;;;5125486;27;20057;-81
2022/11/21 06:55:30;;;;;;;35.60;17.42;;;-1.30;99.90;;;;;;5126806;27;20112;-81
2022/11/21 06:57:59;;;;;;;30.15;15.68;;;-0.70;99.90;;;;;;5091600;27;20416;-81
2022/11/21 07:00:28;;;;;;;31.70;16.35;;;-0.40;99.90;;;;;;5125785;27;20047;-81
2022/11/21 07:02:58;;;;;;;31.02;16.80;;;-1.40;99.90;;;;;;5125528;27;20134;-81
2022/11/21 07:05:24;;;;;;;32.40;16.45;;;-1.40;99.90;;;;;;5108912;27;20043;-81
2022/11/21 07:07:49;;;;;;;30.27;17.52;;;-0.20;99.90;;;;;;5092522;27;20043;-81
2022/11/21 07:10:15;;;;;;;32.25;17.63;;;-0.50;99.90;;;;;;5091086;27;20089;-81
2022/11/21 07:15:25;;;;;;;29.40;16.27;;;-1.40;99.90;;;;;;5125302;27;20047;-81
2022/11/21 07:17:51;;;;;;;33.53;18.00;;;-1.40;99.90;;;;;;5109131;27;20043;-81
2022/11/21 07:20:16;;;;;;;29.75;17.20;;;-1.40;99.90;;;;;;5108924;27;20039;-81
2022/11/21 07:22:42;;;;;;;27.92;16.00;;;-1.40;99.90;;;;;;5124940;27;20041;-81
2022/11/21 07:25:08;;;;;;;31.30;16.77;;;-1.40;99.90;;;;;;5109138;27;20035;-81
2022/11/21 07:27:34;;;;;;;28.67;16.85;;;-1.40;99.90;;;;;;5108097;27;20043;-81
2022/11/21 07:29:59;;;;;;;33.17;17.15;;;-1.40;99.90;;;;;;5091677;27;20142;-81
2022/11/21 07:32:25;;;;;;;29.67;16.25;;;-1.30;99.90;;;;;;5107578;27;20047;-81
2022/11/21 07:34:51;;;;;;;32.60;16.73;;;-0.20;99.90;;;;;;5124703;27;20121;-81
2022/11/21 07:37:16;;;;;;;35.05;18.77;;;-1.30;99.90;;;;;;5124499;27;20128;-81
2022/11/21 07:39:42;;;;;;;39.25;20.48;;;-0.70;99.90;;;;;;5091091;27;20096;-81
2022/11/21 07:42:08;;;;;;;42.75;20.23;;;-1.20;99.90;;;;;;5091501;27;20433;-81
2022/11/21 07:44:33;;;;;;;38.25;19.48;;;-1.20;99.90;;;;;;5106946;27;20046;-81
2022/11/21 07:46:59;;;;;;;43.95;20.85;;;-1.10;99.90;;;;;;5125485;27;20077;-81
2022/11/21 07:49:25;;;;;;;35.95;18.35;;;-1.10;99.90;;;;;;5090540;27;20039;-81
2022/11/21 07:51:51;;;;;;;37.17;19.27;;;-1.00;99.90;;;;;;5107669;27;20122;-82
2022/11/21 07:54:16;;;;;;;37.85;19.45;;;-1.00;99.90;;;;;;5073839;27;20123;-81
2022/11/21 07:56:42;;;;;;;36.10;19.42;;;-0.90;99.90;;;;;;5091189;27;20035;-82
2022/11/21 07:59:08;;;;;;;37.08;19.30;;;-0.90;99.90;;;;;;5108376;27;20058;-81
2022/11/21 08:01:33;;;;;;;37.30;20.50;;;-0.50;99.90;;;;;;5089910;27;20464;-82
2022/11/21 08:03:59;;;;;;;37.67;19.88;;;-0.80;99.90;;;;;;5108431;27;20058;-81
2022/11/21 08:06:25;;;;;;;37.08;19.55;;;-0.80;99.90;;;;;;5106643;27;20043;-81
2022/11/21 08:08:53;;;;;;;39.88;21.00;;;-0.70;99.90;;;;;;5090893;27;20078;-81
2022/11/21 08:11:19;;;;;;;40.58;20.15;;;0.00;99.90;;;;;;5107812;27;20043;-81
2022/11/21 08:13:45;;;;;;;37.85;20.85;;;0.60;99.90;;;;;;5107646;27;20494;-81
2022/11/21 08:16:11;;;;;;;37.78;19.92;;;-0.50;99.90;;;;;;5090899;27;20043;-81
2022/11/21 08:18:37;;;;;;;43.00;21.40;;;-0.50;99.90;;;;;;5124149;27;20039;-81
2022/11/21 08:21:03;;;;;;;38.42;21.27;;;-0.40;99.90;;;;;;5108312;28;20381;-81
2022/11/21 08:23:30;;;;;;;46.22;21.77;;;-0.30;99.90;;;;;;5106055;28;20646;-81
2022/11/21 08:25:56;;;;;;;34.70;21.00;;;-0.30;99.90;;;;;;5090456;27;20035;-82
2022/11/21 08:28:22;;;;;;;35.17;20.65;;;-0.20;99.90;;;;;;5106962;27;20092;-82
2022/11/21 08:30:47;;;;;;;39.42;21.17;;;-0.10;99.90;;;;;;5123996;27;20428;-82
2022/11/21 08:33:13;;;;;;;38.95;19.02;;;0.00;99.90;;;;;;5124126;28;20103;-81
2022/11/21 08:35:41;;;;;;;34.55;20.52;;;0.10;99.90;;;;;;5090485;28;20035;-81
2022/11/21 08:38:07;;;;;;;34.00;19.60;;;0.10;99.90;;;;;;5125011;28;20039;-82
2022/11/21 08:40:34;;;;;;;34.58;18.80;;;0.20;99.90;;;;;;5105878;28;20050;-81
2022/11/21 08:43:05;;;;;;;31.52;17.55;;;0.30;99.90;;;;;;5125296;28;20043;-82
2022/11/21 08:45:32;;;;;;;39.10;20.05;;;0.40;99.90;;;;;;5107057;28;20044;-82
2022/11/21 08:47:58;;;;;;;31.90;19.73;;;0.50;99.90;;;;;;5107854;28;20061;-82
2022/11/21 08:50:25;;;;;;;33.50;18.80;;;0.50;99.90;;;;;;5124140;28;20530;-82
2022/11/21 08:52:51;;;;;;;33.00;18.85;;;0.60;99.90;;;;;;5123981;28;20079;-81
2022/11/21 08:55:16;;;;;;;32.00;17.90;;;1.50;99.90;;;;;;5124701;28;20082;-82
2022/11/21 08:57:42;;;;;;;31.08;17.92;;;0.70;99.90;;;;;;5106633;28;20082;-82
2022/11/21 09:00:11;;;;;;;31.52;19.85;;;0.80;99.90;;;;;;5124549;28;20039;-81
2022/11/21 09:02:37;;;;;;;34.50;19.35;;;0.90;99.90;;;;;;5123402;28;20581;-82
2022/11/21 09:05:03;;;;;;;29.55;17.60;;;0.90;99.90;;;;;;5124161;28;20105;-82
2022/11/21 09:07:29;;;;;;;30.73;17.45;;;0.90;99.90;;;;;;5106639;28;20071;-81
2022/11/21 09:09:54;;;;;;;29.90;17.95;;;1.00;99.90;;;;;;5123968;28;20082;-81
2022/11/21 09:12:20;;;;;;;30.55;18.25;;;1.90;99.90;;;;;;5106870;28;20031;-82
2022/11/21 09:20:14;;;;;;;28.63;16.23;;;1.20;99.90;;;;;;5108970;28;20130;-82
2022/11/21 09:22:40;;;;;;;25.60;16.15;;;1.20;99.90;;;;;;5124453;28;20134;-81
2022/11/21 09:25:06;;;;;;;31.30;16.65;;;1.20;99.90;;;;;;5123857;28;20112;-82
2022/11/21 09:27:31;;;;;;;31.50;17.35;;;1.30;99.90;;;;;;5106164;27;20043;-82
2022/11/21 09:29:57;;;;;;;24.25;15.82;;;1.30;99.90;;;;;;5126418;27;20126;-81
2022/11/21 09:32:23;;;;;;;27.85;16.27;;;1.40;99.90;;;;;;5126547;27;20509;-82
2022/11/21 09:34:48;;;;;;;32.78;18.10;;;1.40;99.90;;;;;;5128003;27;20043;-82
2022/11/21 09:37:14;;;;;;;30.00;15.45;;;2.40;99.90;;;;;;5076203;27;20039;-82
2022/11/21 09:39:40;;;;;;;28.85;16.27;;;1.50;99.90;;;;;;5127283;27;20071;-82
2022/11/21 09:42:27;;;;;;;26.42;16.67;;;1.50;99.90;;;;;;5110115;27;20051;-82
2022/11/21 09:45:25;;;;;;;26.88;15.52;;;1.50;99.90;;;;;;5126533;27;20051;-82
2022/11/21 09:47:51;;;;;;;24.40;15.57;;;1.60;99.90;;;;;;5127639;27;20055;-82
2022/11/21 09:50:33;;;;;;;27.52;15.70;;;2.30;99.90;;;;;;5127382;27;20506;-83
2022/11/21 09:53:04;;;;;;;29.52;15.95;;;1.70;99.90;;;;;;5129418;27;20035;-83
2022/11/21 09:55:43;;;;;;;23.55;14.27;;;1.70;99.90;;;;;;5129486;27;20043;-82
2022/11/21 09:58:28;;;;;;;24.90;14.68;;;2.60;99.90;;;;;;5126765;27;20046;-82
2022/11/21 10:00:54;;;;;;;27.33;14.35;;;1.90;99.90;;;;;;5128948;27;20114;-82
2022/11/21 10:03:23;;;;;;;26.88;15.10;;;1.90;99.90;;;;;;5128806;27;20441;-82
2022/11/21 10:05:59;;;;;;;27.10;15.57;;;2.60;99.90;;;;;;5129106;27;20096;-82
2022/11/21 10:08:40;;;;;;;24.25;14.82;;;2.10;99.90;;;;;;5128922;27;20047;-82
2022/11/21 10:11:20;;;;;;;25.77;14.35;;;2.30;99.90;;;;;;5108823;27;20054;-82
2022/11/21 10:14:32;;;;;;;28.70;16.35;;;2.30;99.90;;;;;;5127574;27;20405;-81
2022/11/21 10:17:25;;;;;;;24.88;16.00;;;2.40;99.90;;;;;;5127619;27;20421;-81
2022/11/21 10:20:14;;;;;;;29.92;15.35;;;2.50;99.90;;;;;;5127440;27;20047;-81
2022/11/21 10:22:58;;;;;;;22.75;14.07;;;2.60;99.90;;;;;;5126681;27;20134;-82
2022/11/21 10:25:27;;;;;;;23.98;14.65;;;2.70;99.90;;;;;;5127670;27;20086;-82
2022/11/21 10:28:03;;;;;;;26.23;15.63;;;2.70;99.90;;;;;;5126150;27;20035;-82
2022/11/21 10:30:29;;;;;;;25.42;15.23;;;2.90;99.90;;;;;;5127024;27;20117;-82
2022/11/21 10:33:00;;;;;;;21.77;14.38;;;3.00;99.90;;;;;;5108559;27;20051;-82
2022/11/21 10:35:42;;;;;;;21.85;13.48;;;3.10;99.90;;;;;;5126439;27;20042;-82
2022/11/21 10:38:24;;;;;;;23.67;14.57;;;3.20;99.90;;;;;;5109611;27;20051;-82
2022/11/21 10:41:00;;;;;;;23.15;15.13;;;3.10;99.90;;;;;;5125086;27;20107;-82
2022/11/21 10:46:26;;;;;;;25.02;14.80;;;4.00;99.90;;;;;;5126294;27;20050;-86
2022/11/21 10:49:00;;;;;;;22.30;13.95;;;2.90;99.90;;;;;;5109130;27;20551;-82
2022/11/21 10:51:44;;;;;;;24.15;14.65;;;2.90;99.90;;;;;;5110212;27;20078;-81
2022/11/21 10:57:17;;;;;;;24.88;14.98;;;2.70;99.90;;;;;;5111627;27;20043;-82
2022/11/21 11:00:13;;;;;;;20.90;13.55;;;2.70;99.90;;;;;;5126201;27;20043;-81
2022/11/21 11:02:59;;;;;;;25.10;12.98;;;2.60;99.90;;;;;;5125024;27;20662;-81
2022/11/21 11:05:38;;;;;;;23.90;14.60;;;2.60;99.90;;;;;;5125867;27;20054;-82
2022/11/21 11:08:11;;;;;;;24.10;14.60;;;2.60;99.90;;;;;;5125926;27;20047;-82
2022/11/21 11:10:39;;;;;;;26.33;15.23;;;2.70;99.90;;;;;;5108440;27;20563;-80
2022/11/21 11:13:35;;;;;;;31.10;14.27;;;2.80;99.90;;;;;;5126910;27;20432;-81
2022/11/21 11:16:10;;;;;;;20.95;12.73;;;2.90;99.90;;;;;;5107871;27;20045;-81
2022/11/21 11:18:58;;;;;;;20.83;12.60;;;3.10;99.90;;;;;;5125160;27;20486;-81
2022/11/21 11:21:27;;;;;;;22.52;12.40;;;3.40;99.90;;;;;;5109196;27;20502;-83
2022/11/21 11:24:04;;;;;;;20.15;10.63;;;3.70;99.90;;;;;;5107531;27;20070;-81
2022/11/21 11:26:30;;;;;;;18.70;11.43;;;3.90;99.90;;;;;;5110483;27;20084;-82
2022/11/21 11:29:16;;;;;;;17.58;10.77;;;4.10;99.90;;;;;;5108333;27;20490;-82
2022/11/21 11:31:48;;;;;;;19.42;11.35;;;4.40;99.90;;;;;;5108134;27;20070;-81
2022/11/21 11:34:14;;;;;;;15.82;8.60;;;5.20;99.90;;;;;;5108797;27;20045;-82
2022/11/21 11:36:48;;;;;;;15.30;10.00;;;4.60;99.90;;;;;;5107410;27;20047;-82
2022/11/21 11:39:31;;;;;;;;;;;4.70;99.90;;;;;;5109169;27;20036;-82
2022/11/21 11:48:10;;;;;;;10.63;7.13;;;5.10;99.90;;;;;;5125385;27;20055;-83
2022/11/21 11:50:46;;;;;;;14.43;7.43;;;5.10;99.90;;;;;;5108459;27;20043;-83
2022/11/21 11:53:19;;;;;;;11.77;7.25;;;4.80;99.90;;;;;;5107064;27;20442;-82
2022/11/21 11:55:59;;;;;;;11.45;6.95;;;5.00;99.90;;;;;;5125468;27;20039;-82
2022/11/21 11:58:33;;;;;;;9.60;6.68;;;4.90;99.90;;;;;;5107294;27;20099;-82
2022/11/21 12:01:01;;;;;;;11.57;7.10;;;4.90;99.90;;;;;;5108096;27;20096;-81
2022/11/21 12:03:53;;;;;;;10.52;6.82;;;5.20;99.90;;;;;;5108013;27;20570;-81
2022/11/21 12:06:23;;;;;;;10.77;6.53;;;4.80;99.90;;;;;;5124812;27;20100;-81
2022/11/21 12:09:28;;;;;;;14.98;7.05;;;4.90;99.90;;;;;;5108217;27;20535;-81
2022/11/21 12:12:15;;;;;;;12.77;6.35;;;4.90;99.90;;;;;;5124648;27;20577;-81
2022/11/21 12:18:04;;;;;;;12.38;7.45;;;5.00;99.90;;;;;;5124637;27;20089;-81
2022/11/21 12:20:55;;;;;;;18.10;6.60;;;5.00;99.90;;;;;;5124154;27;20134;-81
2022/11/21 12:23:27;;;;;;;11.55;6.93;;;5.00;99.90;;;;;;5124692;27;20517;-81
2022/11/21 12:26:30;;;;;;;10.00;6.22;;;5.00;99.90;;;;;;5108110;27;20060;-81
2022/11/21 12:29:19;;;;;;;9.90;6.90;;;5.00;99.90;;;;;;5124004;27;20087;-81
2022/11/21 12:32:03;;;;;;;11.30;7.15;;;5.00;99.90;;;;;;5123908;27;20514;-81
2022/11/21 12:34:50;;;;;;;10.60;6.28;;;5.00;99.90;;;;;;5125316;28;20410;-82
2022/11/21 12:37:36;;;;;;;15.82;7.97;;;5.00;99.90;;;;;;5123511;28;20047;-82
2022/11/21 12:40:35;;;;;;;16.35;8.15;;;4.90;99.90;;;;;;5072910;28;20051;-81
2022/11/21 12:43:30;;;;;;;16.55;8.02;;;4.90;99.90;;;;;;5124356;28;20053;-81
2022/11/21 12:46:12;;;;;;;14.38;8.23;;;4.80;99.90;;;;;;5106048;28;20119;-81
2022/11/21 12:55:13;;;;;;;15.95;9.90;;;5.40;99.90;;;;;;5123611;28;20047;-81
2022/11/21 12:57:55;;;;;;;14.50;9.80;;;4.60;99.90;;;;;;5123881;28;20092;-81
2022/11/21 13:00:31;;;;;;;16.08;9.65;;;4.50;99.90;;;;;;5107523;28;20459;-81
2022/11/21 13:03:38;;;;;;;14.50;10.13;;;5.60;99.90;;;;;;5124116;27;20078;-80
2022/11/21 13:06:11;;;;;;;18.88;10.95;;;4.60;99.90;;;;;;5029100;28;20148;-82
2022/11/21 13:08:38;;;;;;;17.92;11.05;;;4.30;99.90;;;;;;5099444;27;20063;-82
2022/11/21 13:14:41;;;;;;;16.55;11.00;;;4.50;99.90;;;;;;5082622;27;20043;-80
2022/11/21 13:17:23;;;;;;;20.67;12.93;;;4.20;99.90;;;;;;5111256;27;20051;-80
2022/11/21 13:20:23;;;;;;;14.20;8.68;;;4.20;99.90;;;;;;5110488;27;20043;-80
2022/11/21 13:22:51;;;;;;;21.60;11.80;;;4.20;99.90;;;;;;5128098;27;20058;-79
2022/11/21 13:25:38;;;;;;;21.10;12.90;;;5.10;99.90;;;;;;5110426;27;20467;-80